createdAt,value
2022-12-05T00:01:59.241Z,100592.88
2022-12-05T00:04:26.875Z,100599.13
2022-12-05T00:06:54.464Z,100597.44
2022-12-05T00:09:21.942Z,100604.53
2022-12-05T00:11:50.250Z,100602.69
2022-12-05T00:14:19.210Z,100601.88
2022-12-05T00:16:46.788Z,100605.50
2022-12-05T00:19:15.552Z,100599.09
2022-12-05T00:21:43.739Z,100596.22
2022-12-05T00:24:13.455Z,100604.09
2022-12-05T00:26:41.104Z,100608.25
2022-12-05T00:29:08.640Z,100614.50
2022-12-05T00:31:37.630Z,100624.44
2022-12-05T00:34:05.392Z,100628.19
2022-12-05T00:36:36.891Z,100627.06
2022-12-05T00:39:06.406Z,100621.81
2022-12-05T00:41:34.006Z,100619.50
2022-12-05T00:44:02.519Z,100636.78
2022-12-05T00:46:31.862Z,100625.56
2022-12-05T00:49:01.598Z,100638.03
2022-12-05T00:51:31.184Z,100644.53
2022-12-05T00:53:59.618Z,100636.09
2022-12-05T00:56:28.527Z,100630.16
2022-12-05T00:58:57.164Z,100634.72
2022-12-05T01:01:26.493Z,100648.69
2022-12-05T01:03:55.530Z,100643.38
2022-12-05T01:06:25.276Z,100654.44
2022-12-05T01:08:54.301Z,100653.69
2022-12-05T01:11:23.115Z,100653.81
2022-12-05T01:13:50.897Z,100657.69
2022-12-05T01:16:20.429Z,100656.31
2022-12-05T01:18:48.112Z,100657.28
2022-12-05T01:21:15.752Z,100659.38
2022-12-05T01:23:44.711Z,100664.13
2022-12-05T01:26:14.601Z,100670.75
2022-12-05T01:28:42.459Z,100671.25
2022-12-05T01:31:11.772Z,100666.81
2022-12-05T01:33:39.463Z,100659.78
2022-12-05T01:36:11.579Z,100665.03
2022-12-05T01:38:39.890Z,100667.78
2022-12-05T01:41:11.664Z,100659.78
2022-12-05T01:43:55.071Z,100662.00
2022-12-05T01:46:22.741Z,100668.50
2022-12-05T01:48:50.705Z,100670.72
2022-12-05T01:51:18.827Z,100682.50
2022-12-05T01:53:46.752Z,100682.88
2022-12-05T01:56:15.763Z,100684.66
2022-12-05T01:58:43.704Z,100684.75
2022-12-05T02:01:12.619Z,100685.41
2022-12-05T02:03:41.824Z,100687.25
2022-12-05T02:06:10.587Z,100676.13
2022-12-05T02:08:38.673Z,100683.91
2022-12-05T02:11:08.303Z,100688.03
2022-12-05T02:13:46.602Z,100690.00
2022-12-05T02:16:20.111Z,100686.38
2022-12-05T02:18:55.405Z,100688.31
2022-12-05T02:21:52.639Z,100687.16
2022-12-05T02:24:41.011Z,100683.84
2022-12-05T02:27:21.358Z,100688.31
2022-12-05T02:30:09.485Z,100690.00
2022-12-05T02:32:48.046Z,100691.91
2022-12-05T02:35:22.775Z,100690.16
2022-12-05T02:37:55.626Z,100688.03
2022-12-05T02:40:25.598Z,100692.78
2022-12-05T02:42:58.728Z,100690.72
2022-12-05T02:45:29.622Z,100680.75
2022-12-05T02:47:57.862Z,100686.97
2022-12-05T02:50:27.139Z,100691.38
2022-12-05T02:52:55.817Z,100682.00
2022-12-05T02:55:24.320Z,100685.63
2022-12-05T02:57:54.056Z,100682.25
2022-12-05T03:00:21.791Z,100689.22
2022-12-05T03:02:53.598Z,100694.53
2022-12-05T03:05:24.381Z,100682.38
2022-12-05T03:07:53.274Z,100685.25
2022-12-05T03:10:23.424Z,100692.63
2022-12-05T03:12:52.826Z,100688.03
2022-12-05T03:15:24.500Z,100686.97
2022-12-05T03:17:56.383Z,100692.50
2022-12-05T03:20:28.690Z,100689.88
2022-12-05T03:22:58.912Z,100696.31
2022-12-05T03:25:31.329Z,100699.59
2022-12-05T03:28:05.134Z,100700.06
2022-12-05T03:30:35.974Z,100702.09
2022-12-05T03:33:09.064Z,100712.72
2022-12-05T03:35:38.456Z,100705.09
2022-12-05T03:38:10.431Z,100706.16
2022-12-05T03:40:41.803Z,100715.72
2022-12-05T03:43:11.762Z,100716.44
2022-12-05T03:45:45.197Z,100723.91
2022-12-05T03:48:17.516Z,100729.03
2022-12-05T03:50:47.655Z,100736.50
2022-12-05T03:53:19.929Z,100735.50
2022-12-05T03:55:50.433Z,100732.19
2022-12-05T03:58:25.071Z,100737.44
2022-12-05T04:00:54.051Z,100737.94
2022-12-05T04:03:26.254Z,100738.00
2022-12-05T04:05:56.342Z,100736.94
2022-12-05T04:08:27.216Z,100736.63
2022-12-05T04:10:56.798Z,100741.63
2022-12-05T04:13:28.683Z,100728.69
2022-12-05T04:16:16.758Z,100740.31
2022-12-05T04:18:50.681Z,100734.72
2022-12-05T04:21:36.970Z,100739.84
2022-12-05T04:24:25.018Z,100732.81
2022-12-05T04:26:56.933Z,100733.94
2022-12-05T04:29:28.236Z,100732.28
2022-12-05T04:31:59.669Z,100740.28
2022-12-05T04:34:29.375Z,100746.56
2022-12-05T04:37:00.727Z,100753.56
2022-12-05T04:39:32.302Z,100753.69
2022-12-05T04:42:01.724Z,100756.06
2022-12-05T04:44:32.026Z,100755.50
2022-12-05T04:47:02.784Z,100755.22
2022-12-05T04:49:34.728Z,100758.56
2022-12-05T04:52:03.879Z,100759.50
2022-12-05T04:54:33.227Z,100767.41
2022-12-05T04:57:08.136Z,100768.13
2022-12-05T04:59:35.975Z,100763.31
2022-12-05T05:02:08.062Z,100766.09
2022-12-05T05:04:39.138Z,100771.06
2022-12-05T05:07:08.289Z,100763.00
2022-12-05T05:09:36.112Z,100764.09
2022-12-05T05:12:03.728Z,100774.09
2022-12-05T05:14:31.298Z,100769.09
2022-12-05T05:16:59.023Z,100771.84
2022-12-05T05:19:26.598Z,100775.22
2022-12-05T05:21:55.440Z,100778.81
2022-12-05T05:24:23.487Z,100773.38
2022-12-05T05:26:56.969Z,100778.16
2022-12-05T05:29:24.984Z,100775.41
2022-12-05T05:31:52.553Z,100772.72
2022-12-05T05:34:20.060Z,100783.25
2022-12-05T05:36:52.466Z,100773.56
2022-12-05T05:39:21.400Z,100777.28
2022-12-05T05:41:48.910Z,100785.75
2022-12-05T05:44:16.395Z,100780.53
2022-12-05T05:46:43.981Z,100774.34
2022-12-05T05:49:11.718Z,100775.16
2022-12-05T05:51:39.240Z,100775.94
2022-12-05T05:54:06.755Z,100775.31
2022-12-05T05:56:35.628Z,100778.16
2022-12-05T05:59:04.236Z,100778.03
2022-12-05T06:01:31.905Z,100779.34
2022-12-05T06:03:59.629Z,100772.59
2022-12-05T06:06:27.556Z,100773.63
2022-12-05T06:08:55.624Z,100775.41
2022-12-05T06:11:26.773Z,100780.22
2022-12-05T06:13:56.370Z,100784.88
2022-12-05T06:16:24.057Z,100780.47
2022-12-05T06:18:52.546Z,100793.59
2022-12-05T06:21:20.498Z,100800.22
2022-12-05T06:23:48.372Z,100797.97
2022-12-05T06:26:17.596Z,100794.75
2022-12-05T06:28:45.417Z,100802.34
2022-12-05T06:31:15.565Z,100797.91
2022-12-05T06:33:43.100Z,100799.72
2022-12-05T06:36:12.989Z,100801.00
2022-12-05T06:38:42.439Z,100807.66
2022-12-05T06:41:11.720Z,100814.25
2022-12-05T06:43:39.261Z,100813.41
2022-12-05T06:46:07.659Z,100806.63
2022-12-05T06:48:36.752Z,100806.22
2022-12-05T06:51:06.847Z,100818.28
2022-12-05T06:53:34.416Z,100819.16
2022-12-05T06:56:03.472Z,100819.00
2022-12-05T06:58:30.973Z,100817.03
2022-12-05T07:01:16.090Z,100825.78
2022-12-05T07:03:45.058Z,100818.28
2022-12-05T07:06:12.595Z,100824.19
2022-12-05T07:08:41.373Z,100824.00
2022-12-05T07:11:09.343Z,100837.47
2022-12-05T07:13:36.867Z,100840.53
2022-12-05T07:16:07.036Z,100840.28
2022-12-05T07:18:35.044Z,100842.59
2022-12-05T07:21:13.825Z,100838.75
2022-12-05T07:23:42.151Z,100859.06
2022-12-05T07:26:11.268Z,100856.56
2022-12-05T07:28:38.864Z,100846.78
2022-12-05T07:31:08.177Z,100852.47
2022-12-05T07:33:36.378Z,100850.28
2022-12-05T07:36:07.205Z,100859.13
2022-12-05T07:38:34.733Z,100856.75
2022-12-05T07:41:10.213Z,100859.84
2022-12-05T07:43:40.746Z,100865.47
2022-12-05T07:46:09.563Z,100872.22
2022-12-05T07:48:37.381Z,100870.59
2022-12-05T07:51:09.933Z,100871.06
2022-12-05T07:53:38.437Z,100878.44
2022-12-05T07:56:07.798Z,100874.47
2022-12-05T07:58:36.040Z,100870.06
2022-12-05T08:01:07.358Z,100879.72
2022-12-05T08:03:35.213Z,100881.38
2022-12-05T08:06:04.448Z,100892.75
2022-12-05T08:08:33.558Z,100896.66
2022-12-05T08:11:04.677Z,100899.41
2022-12-05T08:13:32.387Z,100903.56
2022-12-05T08:16:02.982Z,100906.31
2022-12-05T08:18:30.690Z,100900.25
2022-12-05T08:21:02.858Z,100912.69
2022-12-05T08:23:31.682Z,100896.41
2022-12-05T08:26:04.031Z,100902.00
2022-12-05T08:28:31.883Z,100894.22
2022-12-05T08:31:16.499Z,100898.00
2022-12-05T08:33:44.697Z,100903.75
2022-12-05T08:36:15.334Z,100908.69
2022-12-05T08:38:43.628Z,100917.75
2022-12-05T08:41:14.349Z,100917.38
2022-12-05T08:43:42.583Z,100917.22
2022-12-05T08:46:10.453Z,100920.13
2022-12-05T08:48:38.364Z,100924.41
2022-12-05T08:51:08.289Z,100929.88
2022-12-05T08:53:40.935Z,100938.84
2022-12-05T08:56:11.993Z,100943.88
2022-12-05T08:58:40.350Z,100947.59
2022-12-05T09:01:09.666Z,100945.13
2022-12-05T09:03:37.427Z,100943.47
2022-12-05T09:06:09.581Z,100937.63
2022-12-05T09:08:37.676Z,100945.53
2022-12-05T09:11:08.629Z,100940.34
2022-12-05T09:13:37.491Z,100948.34
2022-12-05T09:16:08.956Z,100945.53
2022-12-05T09:18:36.643Z,100954.25
2022-12-05T09:21:07.691Z,100952.59
2022-12-05T09:23:35.233Z,100949.06
2022-12-05T09:26:02.994Z,100946.97
2022-12-05T09:28:31.134Z,100945.13
2022-12-05T09:31:01.765Z,100953.19
2022-12-05T09:33:30.487Z,100957.09
2022-12-05T09:35:58.513Z,100966.31
2022-12-05T09:38:26.388Z,100964.56
2022-12-05T09:41:01.745Z,100967.97
2022-12-05T09:43:35.887Z,100972.59
2022-12-05T09:46:13.659Z,100975.03
2022-12-05T09:48:41.515Z,100973.06
2022-12-05T09:51:10.700Z,100968.81
2022-12-05T09:53:40.211Z,100960.47
2022-12-05T09:56:14.908Z,100966.63
2022-12-05T09:58:44.455Z,100970.00
2022-12-05T10:01:29.555Z,100960.06
2022-12-05T10:04:12.175Z,100960.91
2022-12-05T10:06:42.768Z,100958.28
2022-12-05T10:09:24.367Z,100955.78
2022-12-05T10:11:57.756Z,100959.94
2022-12-05T10:14:33.619Z,100949.16
2022-12-05T10:17:08.579Z,100960.59
2022-12-05T10:19:45.531Z,100955.59
2022-12-05T10:22:20.459Z,100961.06
2022-12-05T10:24:51.967Z,100953.03
2022-12-05T10:27:27.207Z,100954.16
2022-12-05T10:29:59.110Z,100935.59
2022-12-05T10:32:33.596Z,100944.22
2022-12-05T10:35:10.363Z,100949.59
2022-12-05T10:37:39.373Z,100945.06
2022-12-05T10:40:14.049Z,100945.06
2022-12-05T10:42:41.828Z,100947.25
2022-12-05T10:45:15.146Z,100944.22
2022-12-05T10:47:45.473Z,100925.63
2022-12-05T10:50:25.777Z,100942.75
2022-12-05T10:52:54.757Z,100933.47
2022-12-05T10:55:22.823Z,100930.88
2022-12-05T10:57:52.411Z,100925.03
2022-12-05T11:00:25.254Z,100930.19
2022-12-05T11:02:55.227Z,100921.00
2022-12-05T11:05:30.741Z,100932.94
2022-12-05T11:08:00.060Z,100937.06
2022-12-05T11:10:29.239Z,100937.63
2022-12-05T11:12:57.826Z,100931.28
2022-12-05T11:15:28.056Z,100932.47
2022-12-05T11:17:59.077Z,100930.13
2022-12-05T11:20:40.628Z,100930.69
2022-12-05T11:23:22.125Z,100939.72
2022-12-05T11:25:50.000Z,100933.19
2022-12-05T11:28:29.403Z,100948.34
2022-12-05T11:30:59.382Z,100947.34
2022-12-05T11:33:29.079Z,100947.50
2022-12-05T11:36:00.265Z,100941.53
2022-12-05T11:38:32.229Z,100943.06
2022-12-05T11:41:09.285Z,100949.22
2022-12-05T11:44:13.423Z,100937.44
2022-12-05T11:46:49.136Z,100945.06
2022-12-05T11:49:29.379Z,100940.06
2022-12-05T11:52:05.079Z,100941.50
2022-12-05T11:55:06.269Z,100945.38
2022-12-05T11:57:45.065Z,100949.00
2022-12-05T12:00:22.423Z,100941.22
2022-12-05T12:03:12.969Z,100945.53
2022-12-05T12:05:46.075Z,100943.16
2022-12-05T12:08:21.199Z,100946.94
2022-12-05T12:10:56.516Z,100940.69
2022-12-05T12:13:36.709Z,100943.75
2022-12-05T12:16:11.480Z,100940.16
2022-12-05T12:18:50.588Z,100944.44
2022-12-05T12:21:20.696Z,100940.97
2022-12-05T12:23:59.723Z,100938.34
2022-12-05T12:26:36.577Z,100942.94
2022-12-05T12:29:11.658Z,100942.66
2022-12-05T12:31:55.336Z,100930.47
2022-12-05T12:34:38.939Z,100942.66
2022-12-05T12:37:15.067Z,100938.50
2022-12-05T12:39:49.035Z,100939.63
2022-12-05T12:42:23.012Z,100944.75
2022-12-05T12:45:13.450Z,100937.78
2022-12-05T12:47:48.448Z,100942.38
2022-12-05T12:50:19.913Z,100940.44
2022-12-05T12:53:12.849Z,100929.91
2022-12-05T12:55:43.644Z,100938.25
2022-12-05T12:58:21.986Z,100928.13
2022-12-05T13:00:59.883Z,100926.84
2022-12-05T13:03:32.030Z,100929.38
2022-12-05T13:06:02.353Z,100927.41
2022-12-05T13:08:35.880Z,100934.38
2022-12-05T13:11:06.883Z,100923.81
2022-12-05T13:13:38.308Z,100936.47
2022-12-05T13:16:08.685Z,100936.31
2022-12-05T13:18:36.537Z,100939.91
2022-12-05T13:21:07.159Z,100942.97
2022-12-05T13:23:42.179Z,100937.81
2022-12-05T13:26:11.700Z,100933.66
2022-12-05T13:28:42.119Z,100934.91
2022-12-05T13:31:10.292Z,100940.47
2022-12-05T13:33:43.915Z,100937.81
2022-12-05T13:36:30.408Z,100940.16
2022-12-05T13:39:18.491Z,100934.50
2022-12-05T13:42:04.788Z,100932.16
2022-12-05T13:44:37.596Z,100941.84
2022-12-05T13:47:07.293Z,100941.00
2022-12-05T13:49:43.520Z,100948.91
2022-12-05T13:52:14.506Z,100944.34
2022-12-05T13:54:45.848Z,100947.66
2022-12-05T13:57:45.751Z,100947.13
2022-12-05T14:00:31.939Z,100943.22
2022-12-05T14:03:05.461Z,100943.53
2022-12-05T14:05:44.455Z,100945.72
2022-12-05T14:08:48.761Z,100946.31
2022-12-05T14:11:18.027Z,100948.25
2022-12-05T14:13:46.140Z,100948.25
2022-12-05T14:16:46.909Z,100950.72
2022-12-05T14:19:50.460Z,100952.69
2022-12-05T14:22:39.004Z,100953.22
2022-12-05T14:25:13.713Z,100954.66
2022-12-05T14:27:47.985Z,100958.78
2022-12-05T14:30:22.599Z,100954.66
2022-12-05T14:32:51.723Z,100958.09
2022-12-05T14:35:30.095Z,100962.53
2022-12-05T14:37:58.738Z,100966.81
2022-12-05T14:40:32.259Z,100966.97
2022-12-05T14:43:03.730Z,100968.06
2022-12-05T14:45:34.452Z,100964.63
2022-12-05T14:48:03.143Z,100970.72
2022-12-05T14:50:41.165Z,100968.66
2022-12-05T14:53:37.799Z,100967.13
2022-12-05T14:56:19.928Z,100960.03
2022-12-05T14:58:51.879Z,100959.63
2022-12-05T15:01:22.529Z,100960.72
2022-12-05T15:04:06.769Z,100970.88
2022-12-05T15:06:36.547Z,100969.78
2022-12-05T15:09:35.995Z,100964.38
2022-12-05T15:11:57.122Z,100968.53
2022-12-05T15:14:31.300Z,100962.13
2022-12-05T15:17:00.807Z,100965.31
2022-12-05T15:19:30.886Z,100961.97
2022-12-05T15:22:01.422Z,100963.22
2022-12-05T15:24:29.016Z,100971.56
2022-12-05T15:26:57.934Z,100963.22
2022-12-05T15:29:29.090Z,100961.84
2022-12-05T15:32:02.117Z,100979.31
2022-12-05T15:34:31.596Z,100966.75
2022-12-05T15:37:03.810Z,100969.50
2022-12-05T15:39:51.466Z,100966.81
2022-12-05T15:42:18.967Z,100970.03
2022-12-05T15:44:47.823Z,100966.00
2022-12-05T15:47:21.151Z,100967.00
2022-12-05T15:49:48.836Z,100971.84
2022-12-05T15:55:22.631Z,100974.19
2022-12-05T15:58:12.825Z,100966.13
2022-12-05T16:00:46.411Z,100971.31
2022-12-05T16:03:17.089Z,100973.50
2022-12-05T16:05:50.359Z,100970.72
2022-12-05T16:08:18.345Z,100967.13
2022-12-05T16:10:48.126Z,100982.66
2022-12-05T16:13:16.863Z,100983.47
2022-12-05T16:15:52.612Z,100977.81
2022-12-05T16:18:27.502Z,100985.97
2022-12-05T16:20:55.661Z,100980.44
2022-12-05T16:23:26.683Z,100979.19
2022-12-05T16:25:54.577Z,100980.72
2022-12-05T16:28:24.173Z,100977.84
2022-12-05T16:30:58.335Z,100980.47
2022-12-05T16:33:26.878Z,100981.81
2022-12-05T16:35:54.764Z,100976.00
2022-12-05T16:38:25.658Z,100987.91
2022-12-05T16:40:58.598Z,100984.59
2022-12-05T16:43:29.151Z,100976.56
2022-12-05T16:46:01.052Z,100990.75
2022-12-05T16:48:30.220Z,100985.03
2022-12-05T16:51:17.562Z,100988.38
2022-12-05T16:53:48.661Z,100977.84
2022-12-05T16:56:18.011Z,100983.50
2022-12-05T16:58:45.960Z,100982.13
2022-12-05T17:01:20.942Z,100981.31
2022-12-05T17:03:48.947Z,100980.19
2022-12-05T17:06:19.192Z,100987.53
2022-12-05T17:08:46.840Z,100981.81
2022-12-05T17:11:19.515Z,100977.41
2022-12-05T17:13:48.549Z,100985.47
2022-12-05T17:16:21.626Z,100989.06
2022-12-05T17:19:28.530Z,100994.59
2022-12-05T17:21:54.347Z,100996.28
2022-12-05T17:24:22.240Z,100986.28
2022-12-05T17:26:49.921Z,100988.50
2022-12-05T17:29:17.596Z,100993.53
2022-12-05T17:31:46.755Z,100990.19
2022-12-05T17:34:18.542Z,100995.31
2022-12-05T17:36:46.558Z,100998.53
2022-12-05T17:39:14.568Z,101003.50
2022-12-05T17:41:42.292Z,101004.59
2022-12-05T17:44:16.018Z,101013.22
2022-12-05T17:46:57.080Z,101010.03
2022-12-05T17:49:26.181Z,101007.09
2022-12-05T17:52:24.656Z,101006.44
2022-12-05T17:54:42.368Z,101008.66
2022-12-05T17:57:10.046Z,101007.41
2022-12-05T17:59:38.164Z,101002.13
2022-12-05T18:02:07.567Z,101006.31
2022-12-05T18:04:35.275Z,101007.13
2022-12-05T18:07:03.118Z,101011.84
2022-12-05T18:09:31.055Z,101012.81
2022-12-05T18:11:58.686Z,101015.59
2022-12-05T18:14:28.367Z,101015.03
2022-12-05T18:16:56.471Z,101022.13
2022-12-05T18:19:26.953Z,101008.34
2022-12-05T18:21:54.712Z,101020.03
2022-12-05T18:24:22.436Z,101011.84
2022-12-05T18:26:50.045Z,101011.56
2022-12-05T18:29:17.768Z,101014.75
2022-12-05T18:31:45.525Z,101009.47
2022-12-05T18:34:13.358Z,101009.06
2022-12-05T18:36:42.454Z,101017.53
2022-12-05T18:39:12.577Z,101014.63
2022-12-05T18:41:40.212Z,101016.84
2022-12-05T18:44:08.658Z,101018.91
2022-12-05T18:46:37.994Z,101021.53
2022-12-05T18:49:05.810Z,101007.13
2022-12-05T18:51:33.590Z,101014.88
2022-12-05T18:54:02.640Z,101005.00
2022-12-05T18:56:40.015Z,101009.84
2022-12-05T18:59:09.504Z,101015.25
2022-12-05T19:01:38.856Z,101012.88
2022-12-05T19:04:08.747Z,101015.13
2022-12-05T19:06:40.120Z,101011.22
2022-12-05T19:09:12.732Z,101016.63
2022-12-05T19:11:47.017Z,101015.56
2022-12-05T19:14:15.822Z,101015.16
2022-12-05T19:16:43.574Z,101006.13
2022-12-05T19:19:12.064Z,101012.25
2022-12-05T19:21:39.661Z,101008.47
2022-12-05T19:24:16.746Z,101010.28
2022-12-05T19:26:46.496Z,101011.22
2022-12-05T19:29:19.493Z,101011.22
2022-12-05T19:31:49.697Z,101004.56
2022-12-05T19:34:24.472Z,101005.66
2022-12-05T19:36:53.777Z,101009.97
2022-12-05T19:39:26.788Z,101007.88
2022-12-05T19:41:57.885Z,101009.78
2022-12-05T19:44:26.907Z,101010.78
2022-12-05T19:46:55.050Z,101013.41
2022-12-05T19:49:23.454Z,101018.16
2022-12-05T19:51:52.623Z,101015.06
2022-12-05T19:54:26.838Z,101021.06
2022-12-05T19:57:00.827Z,101022.19
2022-12-05T19:59:29.680Z,101020.78
2022-12-05T20:02:01.114Z,101016.59
2022-12-05T20:04:29.013Z,101016.72
2022-12-05T20:06:58.875Z,101017.88
2022-12-05T20:09:30.624Z,101022.75
2022-12-05T20:12:03.961Z,101019.50
2022-12-05T20:14:33.812Z,101020.16
2022-12-05T20:17:13.601Z,101024.16
2022-12-05T20:19:45.641Z,101018.50
2022-12-05T20:22:13.403Z,101023.63
2022-12-05T20:24:42.749Z,101023.63
2022-12-05T20:27:11.938Z,101022.38
2022-12-05T20:30:00.131Z,101033.06
2022-12-05T20:32:28.255Z,101024.75
2022-12-05T20:34:59.586Z,101030.28
2022-12-05T20:37:29.926Z,101022.97
2022-12-05T20:40:15.767Z,101017.53
2022-12-05T20:42:46.757Z,101020.75
2022-12-05T20:45:14.619Z,101017.53
2022-12-05T20:47:42.307Z,101023.34
2022-12-05T20:50:12.196Z,101014.75
2022-12-05T20:52:46.609Z,101027.50
2022-12-05T20:55:20.281Z,101026.69
2022-12-05T20:57:49.268Z,101027.34
2022-12-05T21:00:17.265Z,101025.28
2022-12-05T21:02:46.421Z,101019.16
2022-12-05T21:05:40.563Z,101017.44
2022-12-05T21:08:08.379Z,101012.25
2022-12-05T21:10:37.414Z,101012.56
2022-12-05T21:13:07.676Z,101003.66
2022-12-05T21:15:58.179Z,101009.47
2022-12-05T21:18:25.869Z,101014.06
2022-12-05T21:20:57.668Z,101022.25
2022-12-05T21:23:25.393Z,101020.16
2022-12-05T21:25:57.102Z,101017.69
2022-12-05T21:28:24.965Z,101020.03
2022-12-05T21:31:03.145Z,101014.81
2022-12-05T21:33:30.998Z,101015.72
2022-12-05T21:35:58.743Z,101023.69
2022-12-05T21:38:28.701Z,101011.72
2022-12-05T21:40:59.426Z,101024.78
2022-12-05T21:43:28.489Z,101023.56
2022-12-05T21:45:59.307Z,101021.19
2022-12-05T21:48:30.029Z,101016.91
2022-12-05T21:50:59.143Z,101023.25
2022-12-05T21:53:30.421Z,101018.69
2022-12-05T21:56:04.222Z,101024.47
2022-12-05T21:58:36.848Z,101019.22
2022-12-05T22:01:31.007Z,101014.22
2022-12-05T22:04:05.414Z,101023.09
2022-12-05T22:06:35.514Z,101029.31
2022-12-05T22:09:03.266Z,101022.97
2022-12-05T22:11:34.750Z,101015.59
2022-12-05T22:14:06.993Z,101028.06
2022-12-05T22:16:36.431Z,101026.81
2022-12-05T22:19:04.446Z,101025.00
2022-12-05T22:21:33.842Z,101024.31
2022-12-05T22:24:01.884Z,101028.88
2022-12-05T22:26:35.465Z,101018.34
2022-12-05T22:29:06.506Z,101017.38
2022-12-05T22:31:38.232Z,101025.00
2022-12-05T22:34:11.890Z,101021.13
2022-12-05T22:36:43.868Z,101019.47
2022-12-05T22:39:15.130Z,101020.91
2022-12-05T22:41:42.981Z,101019.28
2022-12-05T22:44:12.149Z,101014.22
2022-12-05T22:46:42.254Z,101006.19
2022-12-05T22:49:12.544Z,101008.00
2022-12-05T22:51:40.215Z,101002.56
2022-12-05T22:54:08.646Z,101006.59
2022-12-05T22:56:36.252Z,101006.97
2022-12-05T22:59:04.068Z,101004.78
2022-12-05T23:01:34.224Z,101004.94
2022-12-05T23:04:03.487Z,101006.59
2022-12-05T23:06:33.964Z,101002.88
2022-12-05T23:09:02.046Z,101001.44
2022-12-05T23:11:30.752Z,100998.94
2022-12-05T23:14:02.165Z,100993.69
2022-12-05T23:16:34.633Z,101004.78
2022-12-05T23:19:04.008Z,101002.28
2022-12-05T23:21:33.500Z,100999.78
2022-12-05T23:24:04.777Z,100997.59
2022-12-05T23:26:34.832Z,100999.25
2022-12-05T23:29:15.173Z,100992.31
2022-12-05T23:31:44.691Z,100989.25
2022-12-05T23:34:14.509Z,100989.38
2022-12-05T23:36:43.921Z,100989.09
2022-12-05T23:39:11.750Z,100997.28
2022-12-05T23:41:41.756Z,100987.41
2022-12-05T23:44:12.012Z,100993.81
2022-12-05T23:46:41.016Z,100993.97
2022-12-05T23:49:10.465Z,100998.69
2022-12-05T23:51:40.085Z,100992.31
2022-12-05T23:54:10.656Z,100994.53
2022-12-05T23:56:42.562Z,100991.03
2022-12-05T23:59:10.750Z,100996.03
